map of NUE home
NUE - Airport
Location
City:  Nürnberg, Bavaria, Germany
Near (Alt.):Nuremburg
ICAO:EDDN
IATA:NUE

Details
Type:Airport (Flugplatz, Airfield)
Use:Public/Civil, International (customs port of entry)
Latitude:49°29'55"N (49.498700)
Longitude:11°04'01"E (11.066897)
Datum:WGS 1984
Elevation:1046 ft (319 m)
Variation:3.16°E (WMM2015 magnetic declination)
0.13° annual change
Runways:1
Longest:8858 × 148 ft (2700 × 45 m), paved

Time
Time Zone:UTC+1 (DST+2)
Local Time:

Weather
METAR:EDDN 220450Z 10005KT 9000 BKN018 M06/M07 Q1014
TAF:EDDN 212300Z 2200/2224 12004KT 9000 BKN020 PROB30
TEMPO 2203/2209 BKN012

Related Locations
Nearby:
Farthest:CHT: 11903 mi / 19156 km
Waitangi [Tuuta], CIT, NZ

Find:

   beyond  
but within

Other Information
Maps:
NOTAMs:
Links:
Sources:

  
  • flag of Germany
  • flag of Bavaria
  • flag of Nürnberg
  

Airport Diagram

Airport diagram for NUE

Larger airport diagram (OBSOLETE) from NGA

Sectional Chart

Flight Planning
at skyvector.com

Satellite Image

Google Maps Satellite view

 

Copyright © 2004-2019 Karl L. Swartz. All rights reserved.
The Great Circle Mapper name and logo are trademarks of the Great Circle Mapper.
All other trademarks mentioned herein belong to their respective owners.
Please see credits for attibutions and further copyright information.

  Follow gcmap on Facebook Follow gcmap on Twitter Follow gcmap on Google+ GCmap on LinkedIn

hCard Microformat

Geo Microformat